sensor_id;sensor_type;location;lat;lon;timestamp;P1;durP1;ratioP1;P2;durP2;ratioP2
70838;SDS011;58464;52.298;4.852;2023-06-26T00:17:40;7.93;;;5.28;;
70838;SDS011;58464;52.298;4.852;2023-06-26T00:20:05;5.10;;;3.93;;
70838;SDS011;58464;52.298;4.852;2023-06-26T00:22:31;6.93;;;4.03;;
70838;SDS011;58464;52.298;4.852;2023-06-26T00:24:57;6.47;;;4.13;;
70838;SDS011;58464;52.298;4.852;2023-06-26T00:27:23;7.20;;;3.87;;
70838;SDS011;58464;52.298;4.852;2023-06-26T00:29:49;4.10;;;3.20;;
70838;SDS011;58464;52.298;4.852;2023-06-26T00:32:14;6.35;;;3.50;;
70838;SDS011;58464;52.298;4.852;2023-06-26T00:34:40;5.63;;;3.60;;
70838;SDS011;58464;52.298;4.852;2023-06-26T00:37:05;4.63;;;2.92;;
70838;SDS011;58464;52.298;4.852;2023-06-26T00:39:30;5.85;;;3.70;;
70838;SDS011;58464;52.298;4.852;2023-06-26T00:41:55;11.00;;;4.47;;
70838;SDS011;58464;52.298;4.852;2023-06-26T00:44:21;5.43;;;3.77;;
70838;SDS011;58464;52.298;4.852;2023-06-26T00:46:46;4.97;;;3.88;;
70838;SDS011;58464;52.298;4.852;2023-06-26T00:49:11;6.25;;;3.08;;
70838;SDS011;58464;52.298;4.852;2023-06-26T00:51:37;11.55;;;4.47;;
70838;SDS011;58464;52.298;4.852;2023-06-26T00:54:03;5.85;;;3.67;;
70838;SDS011;58464;52.298;4.852;2023-06-26T00:56:28;8.82;;;4.57;;
70838;SDS011;58464;52.298;4.852;2023-06-26T00:58:54;11.68;;;4.50;;
70838;SDS011;58464;52.298;4.852;2023-06-26T01:01:19;11.17;;;3.87;;
70838;SDS011;58464;52.298;4.852;2023-06-26T01:03:51;7.55;;;3.75;;
70838;SDS011;58464;52.298;4.852;2023-06-26T01:06:18;8.75;;;3.78;;
70838;SDS011;58464;52.298;4.852;2023-06-26T01:08:44;11.82;;;4.95;;
70838;SDS011;58464;52.298;4.852;2023-06-26T01:11:10;11.77;;;4.38;;
70838;SDS011;58464;52.298;4.852;2023-06-26T01:13:36;9.82;;;4.20;;
70838;SDS011;58464;52.298;4.852;2023-06-26T01:16:02;9.00;;;2.92;;
70838;SDS011;58464;52.298;4.852;2023-06-26T01:18:27;11.77;;;4.75;;
70838;SDS011;58464;52.298;4.852;2023-06-26T01:20:53;16.88;;;4.05;;
70838;SDS011;58464;52.298;4.852;2023-06-26T01:23:37;15.38;;;4.53;;
70838;SDS011;58464;52.298;4.852;2023-06-26T01:28:33;10.93;;;4.75;;
70838;SDS011;58464;52.298;4.852;2023-06-26T01:30:59;7.45;;;3.80;;
70838;SDS011;58464;52.298;4.852;2023-06-26T01:33:25;9.70;;;3.47;;
70838;SDS011;58464;52.298;4.852;2023-06-26T01:35:51;7.20;;;3.63;;
70838;SDS011;58464;52.298;4.852;2023-06-26T01:38:17;10.82;;;4.78;;
70838;SDS011;58464;52.298;4.852;2023-06-26T01:40:42;12.00;;;4.28;;
70838;SDS011;58464;52.298;4.852;2023-06-26T01:45:45;17.15;;;4.20;;
70838;SDS011;58464;52.298;4.852;2023-06-26T01:48:12;8.80;;;4.43;;
70838;SDS011;58464;52.298;4.852;2023-06-26T01:50:38;11.98;;;4.63;;
70838;SDS011;58464;52.298;4.852;2023-06-26T01:53:10;8.40;;;3.25;;
70838;SDS011;58464;52.298;4.852;2023-06-26T01:58:02;15.75;;;4.78;;
70838;SDS011;58464;52.298;4.852;2023-06-26T02:00:28;17.60;;;4.53;;
70838;SDS011;58464;52.298;4.852;2023-06-26T02:02:53;12.27;;;4.65;;
70838;SDS011;58464;52.298;4.852;2023-06-26T02:05:19;13.35;;;4.65;;
70838;SDS011;58464;52.298;4.852;2023-06-26T02:07:44;12.73;;;4.72;;
70838;SDS011;58464;52.298;4.852;2023-06-26T02:10:09;27.20;;;5.57;;
70838;SDS011;58464;52.298;4.852;2023-06-26T02:12:35;18.25;;;5.35;;
70838;SDS011;58464;52.298;4.852;2023-06-26T02:15:01;15.75;;;4.72;;
70838;SDS011;58464;52.298;4.852;2023-06-26T02:17:27;18.77;;;5.32;;
70838;SDS011;58464;52.298;4.852;2023-06-26T02:19:52;16.45;;;4.05;;
70838;SDS011;58464;52.298;4.852;2023-06-26T02:22:17;18.77;;;4.70;;
70838;SDS011;58464;52.298;4.852;2023-06-26T02:24:43;23.77;;;5.20;;
70838;SDS011;58464;52.298;4.852;2023-06-26T02:27:08;10.93;;;3.88;;
70838;SDS011;58464;52.298;4.852;2023-06-26T02:29:34;14.05;;;4.80;;
70838;SDS011;58464;52.298;4.852;2023-06-26T02:31:59;23.75;;;5.28;;
70838;SDS011;58464;52.298;4.852;2023-06-26T02:34:24;18.50;;;5.18;;
70838;SDS011;58464;52.298;4.852;2023-06-26T02:36:50;15.33;;;4.13;;
70838;SDS011;58464;52.298;4.852;2023-06-26T02:39:15;15.23;;;5.27;;
70838;SDS011;58464;52.298;4.852;2023-06-26T02:41:40;21.25;;;5.47;;
70838;SDS011;58464;52.298;4.852;2023-06-26T02:44:06;21.58;;;5.55;;
70838;SDS011;58464;52.298;4.852;2023-06-26T02:46:31;17.60;;;4.88;;
70838;SDS011;58464;52.298;4.852;2023-06-26T02:48:57;19.23;;;5.47;;
70838;SDS011;58464;52.298;4.852;2023-06-26T02:51:22;23.13;;;5.43;;
70838;SDS011;58464;52.298;4.852;2023-06-26T02:53:47;21.20;;;5.72;;
70838;SDS011;58464;52.298;4.852;2023-06-26T02:56:13;28.47;;;5.83;;
70838;SDS011;58464;52.298;4.852;2023-06-26T02:58:38;20.67;;;5.95;;
70838;SDS011;58464;52.298;4.852;2023-06-26T03:01:03;24.77;;;5.60;;
70838;SDS011;58464;52.298;4.852;2023-06-26T03:03:29;17.60;;;4.83;;
70838;SDS011;58464;52.298;4.852;2023-06-26T03:05:54;10.95;;;4.57;;
70838;SDS011;58464;52.298;4.852;2023-06-26T03:08:19;15.47;;;4.70;;
70838;SDS011;58464;52.298;4.852;2023-06-26T03:10:44;25.48;;;5.78;;
70838;SDS011;58464;52.298;4.852;2023-06-26T03:13:10;20.70;;;6.40;;
70838;SDS011;58464;52.298;4.852;2023-06-26T03:15:35;14.35;;;4.72;;
70838;SDS011;58464;52.298;4.852;2023-06-26T03:18:01;14.48;;;5.07;;
70838;SDS011;58464;52.298;4.852;2023-06-26T03:20:26;11.03;;;3.73;;
70838;SDS011;58464;52.298;4.852;2023-06-26T03:22:51;12.00;;;4.05;;
70838;SDS011;58464;52.298;4.852;2023-06-26T03:25:16;16.57;;;4.17;;
70838;SDS011;58464;52.298;4.852;2023-06-26T03:27:43;11.25;;;3.78;;
70838;SDS011;58464;52.298;4.852;2023-06-26T03:30:09;12.02;;;4.53;;
70838;SDS011;58464;52.298;4.852;2023-06-26T03:32:34;14.30;;;4.38;;
70838;SDS011;58464;52.298;4.852;2023-06-26T03:34:59;9.03;;;3.20;;
70838;SDS011;58464;52.298;4.852;2023-06-26T03:37:28;13.15;;;4.05;;
70838;SDS011;58464;52.298;4.852;2023-06-26T03:39:53;8.88;;;3.30;;
70838;SDS011;58464;52.298;4.852;2023-06-26T03:42:18;9.67;;;3.53;;
70838;SDS011;58464;52.298;4.852;2023-06-26T03:44:44;8.27;;;3.20;;
70838;SDS011;58464;52.298;4.852;2023-06-26T03:47:09;8.00;;;3.10;;
70838;SDS011;58464;52.298;4.852;2023-06-26T03:49:34;9.00;;;3.78;;
70838;SDS011;58464;52.298;4.852;2023-06-26T03:51:59;8.18;;;4.07;;
70838;SDS011;58464;52.298;4.852;2023-06-26T03:54:25;16.30;;;3.83;;
70838;SDS011;58464;52.298;4.852;2023-06-26T03:56:51;8.80;;;2.83;;
70838;SDS011;58464;52.298;4.852;2023-06-26T03:59:17;13.95;;;3.53;;
70838;SDS011;58464;52.298;4.852;2023-06-26T04:01:42;9.63;;;3.03;;
70838;SDS011;58464;52.298;4.852;2023-06-26T04:04:08;5.85;;;2.38;;
70838;SDS011;58464;52.298;4.852;2023-06-26T04:06:33;5.32;;;1.98;;
70838;SDS011;58464;52.298;4.852;2023-06-26T04:08:58;6.23;;;2.53;;
70838;SDS011;58464;52.298;4.852;2023-06-26T04:11:24;8.50;;;2.80;;
70838;SDS011;58464;52.298;4.852;2023-06-26T04:13:50;8.70;;;3.50;;
70838;SDS011;58464;52.298;4.852;2023-06-26T04:16:15;6.32;;;2.90;;
70838;SDS011;58464;52.298;4.852;2023-06-26T04:18:40;10.15;;;2.47;;
70838;SDS011;58464;52.298;4.852;2023-06-26T04:21:10;6.57;;;2.60;;
70838;SDS011;58464;52.298;4.852;2023-06-26T04:23:36;9.30;;;2.80;;
70838;SDS011;58464;52.298;4.852;2023-06-26T04:26:01;8.13;;;2.83;;
70838;SDS011;58464;52.298;4.852;2023-06-26T04:28:28;9.60;;;2.53;;
70838;SDS011;58464;52.298;4.852;2023-06-26T04:30:53;4.95;;;1.77;;
70838;SDS011;58464;52.298;4.852;2023-06-26T04:33:19;7.18;;;2.88;;
70838;SDS011;58464;52.298;4.852;2023-06-26T04:35:44;10.00;;;3.10;;
70838;SDS011;58464;52.298;4.852;2023-06-26T04:38:14;5.75;;;2.90;;
70838;SDS011;58464;52.298;4.852;2023-06-26T04:40:39;5.95;;;2.53;;
70838;SDS011;58464;52.298;4.852;2023-06-26T04:43:04;10.10;;;2.50;;
70838;SDS011;58464;52.298;4.852;2023-06-26T04:45:29;7.40;;;2.57;;
70838;SDS011;58464;52.298;4.852;2023-06-26T04:47:55;9.70;;;2.80;;
70838;SDS011;58464;52.298;4.852;2023-06-26T04:50:21;10.10;;;2.78;;
70838;SDS011;58464;52.298;4.852;2023-06-26T04:52:46;9.05;;;3.25;;
70838;SDS011;58464;52.298;4.852;2023-06-26T04:55:12;8.87;;;2.70;;
70838;SDS011;58464;52.298;4.852;2023-06-26T04:57:37;5.97;;;2.60;;
70838;SDS011;58464;52.298;4.852;2023-06-26T05:00:03;5.80;;;2.10;;
70838;SDS011;58464;52.298;4.852;2023-06-26T05:02:32;7.53;;;2.33;;
70838;SDS011;58464;52.298;4.852;2023-06-26T05:04:57;9.27;;;2.47;;
70838;SDS011;58464;52.298;4.852;2023-06-26T05:07:23;8.20;;;3.13;;
70838;SDS011;58464;52.298;4.852;2023-06-26T05:09:48;10.40;;;2.73;;
70838;SDS011;58464;52.298;4.852;2023-06-26T05:12:13;5.53;;;3.07;;
70838;SDS011;58464;52.298;4.852;2023-06-26T05:14:38;9.63;;;2.47;;
70838;SDS011;58464;52.298;4.852;2023-06-26T05:17:04;9.27;;;2.00;;
70838;SDS011;58464;52.298;4.852;2023-06-26T05:19:29;5.35;;;2.25;;
70838;SDS011;58464;52.298;4.852;2023-06-26T05:21:54;8.10;;;2.07;;
70838;SDS011;58464;52.298;4.852;2023-06-26T05:24:20;5.82;;;1.88;;
70838;SDS011;58464;52.298;4.852;2023-06-26T05:26:46;5.35;;;2.33;;
70838;SDS011;58464;52.298;4.852;2023-06-26T05:29:11;8.27;;;1.88;;
70838;SDS011;58464;52.298;4.852;2023-06-26T05:31:38;4.43;;;2.08;;
70838;SDS011;58464;52.298;4.852;2023-06-26T05:34:05;8.48;;;2.58;;
70838;SDS011;58464;52.298;4.852;2023-06-26T05:36:31;7.10;;;2.05;;
70838;SDS011;58464;52.298;4.852;2023-06-26T05:38:58;5.25;;;2.00;;
70838;SDS011;58464;52.298;4.852;2023-06-26T05:41:24;4.32;;;2.00;;
70838;SDS011;58464;52.298;4.852;2023-06-26T05:43:49;6.13;;;1.98;;
70838;SDS011;58464;52.298;4.852;2023-06-26T05:46:14;4.45;;;1.60;;
70838;SDS011;58464;52.298;4.852;2023-06-26T05:48:40;4.03;;;1.92;;
70838;SDS011;58464;52.298;4.852;2023-06-26T05:51:06;6.85;;;2.13;;
70838;SDS011;58464;52.298;4.852;2023-06-26T05:53:31;7.28;;;2.88;;
70838;SDS011;58464;52.298;4.852;2023-06-26T05:55:57;5.15;;;2.22;;
70838;SDS011;58464;52.298;4.852;2023-06-26T05:58:23;6.15;;;2.28;;
70838;SDS011;58464;52.298;4.852;2023-06-26T06:00:49;4.50;;;2.00;;
70838;SDS011;58464;52.298;4.852;2023-06-26T06:03:14;3.85;;;1.88;;
70838;SDS011;58464;52.298;4.852;2023-06-26T06:05:39;7.82;;;2.60;;
70838;SDS011;58464;52.298;4.852;2023-06-26T06:08:05;7.57;;;2.50;;
70838;SDS011;58464;52.298;4.852;2023-06-26T06:10:30;9.53;;;2.30;;
70838;SDS011;58464;52.298;4.852;2023-06-26T06:12:55;12.25;;;2.67;;
70838;SDS011;58464;52.298;4.852;2023-06-26T06:15:21;5.32;;;2.47;;
70838;SDS011;58464;52.298;4.852;2023-06-26T06:17:47;7.28;;;2.30;;
70838;SDS011;58464;52.298;4.852;2023-06-26T06:20:12;6.45;;;2.10;;
70838;SDS011;58464;52.298;4.852;2023-06-26T06:22:38;7.72;;;2.40;;
70838;SDS011;58464;52.298;4.852;2023-06-26T06:25:03;6.57;;;2.40;;
70838;SDS011;58464;52.298;4.852;2023-06-26T06:27:28;7.47;;;2.22;;
70838;SDS011;58464;52.298;4.852;2023-06-26T06:29:54;6.70;;;2.60;;
70838;SDS011;58464;52.298;4.852;2023-06-26T06:32:19;12.07;;;3.07;;
70838;SDS011;58464;52.298;4.852;2023-06-26T06:34:44;7.17;;;2.47;;
70838;SDS011;58464;52.298;4.852;2023-06-26T06:37:09;6.30;;;1.63;;
70838;SDS011;58464;52.298;4.852;2023-06-26T06:39:35;6.65;;;1.90;;
70838;SDS011;58464;52.298;4.852;2023-06-26T06:42:00;12.07;;;2.80;;
70838;SDS011;58464;52.298;4.852;2023-06-26T06:44:25;8.13;;;2.97;;
70838;SDS011;58464;52.298;4.852;2023-06-26T06:46:51;11.07;;;3.00;;
70838;SDS011;58464;52.298;4.852;2023-06-26T06:49:16;8.48;;;2.50;;
70838;SDS011;58464;52.298;4.852;2023-06-26T06:51:41;9.23;;;2.78;;
70838;SDS011;58464;52.298;4.852;2023-06-26T06:54:07;6.90;;;2.30;;
70838;SDS011;58464;52.298;4.852;2023-06-26T06:56:32;7.90;;;2.35;;
70838;SDS011;58464;52.298;4.852;2023-06-26T06:58:58;9.52;;;2.38;;
70838;SDS011;58464;52.298;4.852;2023-06-26T07:01:23;9.33;;;2.33;;
70838;SDS011;58464;52.298;4.852;2023-06-26T07:03:48;11.38;;;3.00;;
70838;SDS011;58464;52.298;4.852;2023-06-26T07:06:13;15.77;;;1.90;;
70838;SDS011;58464;52.298;4.852;2023-06-26T07:08:40;8.53;;;1.80;;
70838;SDS011;58464;52.298;4.852;2023-06-26T07:11:06;11.60;;;2.03;;
70838;SDS011;58464;52.298;4.852;2023-06-26T07:13:32;6.10;;;1.80;;
70838;SDS011;58464;52.298;4.852;2023-06-26T07:15:57;5.85;;;1.35;;
70838;SDS011;58464;52.298;4.852;2023-06-26T07:18:22;11.70;;;2.50;;
70838;SDS011;58464;52.298;4.852;2023-06-26T07:20:47;4.68;;;1.65;;
70838;SDS011;58464;52.298;4.852;2023-06-26T07:23:13;3.23;;;1.23;;
70838;SDS011;58464;52.298;4.852;2023-06-26T07:25:38;11.52;;;2.10;;
70838;SDS011;58464;52.298;4.852;2023-06-26T07:28:05;5.27;;;1.80;;
70838;SDS011;58464;52.298;4.852;2023-06-26T07:30:34;6.00;;;1.95;;
70838;SDS011;58464;52.298;4.852;2023-06-26T07:32:59;21.77;;;2.63;;
70838;SDS011;58464;52.298;4.852;2023-06-26T07:35:24;6.73;;;2.07;;
70838;SDS011;58464;52.298;4.852;2023-06-26T07:37:52;6.75;;;1.80;;
70838;SDS011;58464;52.298;4.852;2023-06-26T07:40:17;7.93;;;1.57;;
70838;SDS011;58464;52.298;4.852;2023-06-26T07:42:42;8.37;;;1.93;;
70838;SDS011;58464;52.298;4.852;2023-06-26T07:45:08;9.68;;;1.70;;
70838;SDS011;58464;52.298;4.852;2023-06-26T07:47:37;4.80;;;1.58;;
70838;SDS011;58464;52.298;4.852;2023-06-26T07:50:02;7.82;;;1.85;;
70838;SDS011;58464;52.298;4.852;2023-06-26T07:52:28;14.77;;;2.67;;
70838;SDS011;58464;52.298;4.852;2023-06-26T07:54:54;6.60;;;1.80;;
70838;SDS011;58464;52.298;4.852;2023-06-26T07:57:19;3.77;;;1.07;;
70838;SDS011;58464;52.298;4.852;2023-06-26T07:59:46;7.83;;;1.90;;
70838;SDS011;58464;52.298;4.852;2023-06-26T08:02:11;11.07;;;2.10;;
70838;SDS011;58464;52.298;4.852;2023-06-26T08:04:37;7.47;;;2.03;;
70838;SDS011;58464;52.298;4.852;2023-06-26T08:07:02;7.80;;;2.33;;
70838;SDS011;58464;52.298;4.852;2023-06-26T08:09:29;3.88;;;1.67;;
70838;SDS011;58464;52.298;4.852;2023-06-26T08:11:54;5.50;;;1.33;;
70838;SDS011;58464;52.298;4.852;2023-06-26T08:14:20;4.53;;;1.38;;
70838;SDS011;58464;52.298;4.852;2023-06-26T08:16:45;8.20;;;1.83;;
70838;SDS011;58464;52.298;4.852;2023-06-26T08:19:11;10.20;;;2.35;;
70838;SDS011;58464;52.298;4.852;2023-06-26T08:21:37;5.55;;;1.70;;
70838;SDS011;58464;52.298;4.852;2023-06-26T08:24:02;20.70;;;2.37;;
70838;SDS011;58464;52.298;4.852;2023-06-26T08:26:27;4.65;;;1.45;;
70838;SDS011;58464;52.298;4.852;2023-06-26T08:31:56;8.82;;;1.73;;
70838;SDS011;58464;52.298;4.852;2023-06-26T08:34:21;4.40;;;1.45;;
70838;SDS011;58464;52.298;4.852;2023-06-26T08:36:46;11.13;;;1.92;;
70838;SDS011;58464;52.298;4.852;2023-06-26T08:39:12;6.80;;;1.87;;
70838;SDS011;58464;52.298;4.852;2023-06-26T08:41:37;4.75;;;1.50;;
70838;SDS011;58464;52.298;4.852;2023-06-26T08:44:02;8.10;;;2.07;;
70838;SDS011;58464;52.298;4.852;2023-06-26T08:46:29;10.75;;;1.85;;
70838;SDS011;58464;52.298;4.852;2023-06-26T08:48:57;10.48;;;1.60;;
70838;SDS011;58464;52.298;4.852;2023-06-26T08:51:24;9.95;;;2.92;;
70838;SDS011;58464;52.298;4.852;2023-06-26T08:56:19;6.13;;;1.80;;
70838;SDS011;58464;52.298;4.852;2023-06-26T08:58:47;3.70;;;1.23;;
70838;SDS011;58464;52.298;4.852;2023-06-26T09:01:12;9.40;;;2.08;;
70838;SDS011;58464;52.298;4.852;2023-06-26T09:03:38;9.45;;;2.05;;
70838;SDS011;58464;52.298;4.852;2023-06-26T09:06:03;5.18;;;1.45;;
70838;SDS011;58464;52.298;4.852;2023-06-26T09:08:28;2.07;;;1.00;;
70838;SDS011;58464;52.298;4.852;2023-06-26T09:10:54;6.33;;;1.70;;
70838;SDS011;58464;52.298;4.852;2023-06-26T09:13:19;6.80;;;1.88;;
70838;SDS011;58464;52.298;4.852;2023-06-26T09:15:44;8.60;;;1.55;;
70838;SDS011;58464;52.298;4.852;2023-06-26T09:18:11;6.53;;;1.63;;
70838;SDS011;58464;52.298;4.852;2023-06-26T09:20:36;4.10;;;1.10;;
70838;SDS011;58464;52.298;4.852;2023-06-26T09:23:02;2.97;;;1.25;;
70838;SDS011;58464;52.298;4.852;2023-06-26T09:25:28;5.18;;;1.60;;
70838;SDS011;58464;52.298;4.852;2023-06-26T09:27:54;3.47;;;1.13;;
70838;SDS011;58464;52.298;4.852;2023-06-26T09:30:21;5.28;;;1.80;;
70838;SDS011;58464;52.298;4.852;2023-06-26T09:32:47;4.70;;;0.88;;
70838;SDS011;58464;52.298;4.852;2023-06-26T09:35:14;8.15;;;1.25;;
70838;SDS011;58464;52.298;4.852;2023-06-26T09:37:40;3.65;;;1.20;;
70838;SDS011;58464;52.298;4.852;2023-06-26T09:40:05;5.15;;;1.20;;
70838;SDS011;58464;52.298;4.852;2023-06-26T09:42:31;7.82;;;1.40;;
70838;SDS011;58464;52.298;4.852;2023-06-26T09:44:57;4.43;;;1.38;;
70838;SDS011;58464;52.298;4.852;2023-06-26T09:47:23;4.75;;;1.27;;
70838;SDS011;58464;52.298;4.852;2023-06-26T09:49:48;3.63;;;1.63;;
70838;SDS011;58464;52.298;4.852;2023-06-26T09:52:14;8.00;;;1.88;;
70838;SDS011;58464;52.298;4.852;2023-06-26T09:54:40;4.50;;;1.20;;
70838;SDS011;58464;52.298;4.852;2023-06-26T09:57:09;5.40;;;1.48;;
70838;SDS011;58464;52.298;4.852;2023-06-26T09:59:35;3.92;;;1.30;;
70838;SDS011;58464;52.298;4.852;2023-06-26T10:02:00;5.28;;;1.50;;
70838;SDS011;58464;52.298;4.852;2023-06-26T10:04:26;2.80;;;1.20;;
70838;SDS011;58464;52.298;4.852;2023-06-26T10:06:51;9.15;;;1.33;;
70838;SDS011;58464;52.298;4.852;2023-06-26T10:09:19;1.30;;;0.80;;
70838;SDS011;58464;52.298;4.852;2023-06-26T10:12:01;6.82;;;1.48;;
70838;SDS011;58464;52.298;4.852;2023-06-26T10:14:31;3.80;;;1.30;;
70838;SDS011;58464;52.298;4.852;2023-06-26T10:17:00;7.90;;;1.30;;
70838;SDS011;58464;52.298;4.852;2023-06-26T10:19:27;4.40;;;1.13;;
70838;SDS011;58464;52.298;4.852;2023-06-26T10:21:53;6.53;;;1.50;;
70838;SDS011;58464;52.298;4.852;2023-06-26T10:24:19;7.60;;;1.33;;
70838;SDS011;58464;52.298;4.852;2023-06-26T10:26:45;2.45;;;1.08;;
70838;SDS011;58464;52.298;4.852;2023-06-26T10:29:12;6.68;;;1.45;;
70838;SDS011;58464;52.298;4.852;2023-06-26T10:31:40;4.95;;;1.25;;
70838;SDS011;58464;52.298;4.852;2023-06-26T10:34:07;5.03;;;1.13;;
70838;SDS011;58464;52.298;4.852;2023-06-26T10:36:33;6.78;;;1.10;;
70838;SDS011;58464;52.298;4.852;2023-06-26T10:39:04;7.82;;;1.63;;
70838;SDS011;58464;52.298;4.852;2023-06-26T10:41:40;5.22;;;1.17;;
70838;SDS011;58464;52.298;4.852;2023-06-26T10:44:10;9.35;;;2.15;;
70838;SDS011;58464;52.298;4.852;2023-06-26T10:46:52;5.53;;;1.38;;
70838;SDS011;58464;52.298;4.852;2023-06-26T10:49:18;6.00;;;1.10;;
70838;SDS011;58464;52.298;4.852;2023-06-26T10:51:47;2.88;;;1.08;;
70838;SDS011;58464;52.298;4.852;2023-06-26T10:54:14;5.50;;;1.27;;
70838;SDS011;58464;52.298;4.852;2023-06-26T10:56:40;4.00;;;1.05;;
70838;SDS011;58464;52.298;4.852;2023-06-26T10:59:19;13.25;;;2.33;;
70838;SDS011;58464;52.298;4.852;2023-06-26T11:01:45;5.25;;;1.38;;
70838;SDS011;58464;52.298;4.852;2023-06-26T11:04:12;7.65;;;1.52;;
70838;SDS011;58464;52.298;4.852;2023-06-26T11:06:39;5.60;;;1.15;;
70838;SDS011;58464;52.298;4.852;2023-06-26T11:14:35;3.63;;;1.25;;
70838;SDS011;58464;52.298;4.852;2023-06-26T11:17:02;6.30;;;1.70;;
70838;SDS011;58464;52.298;4.852;2023-06-26T11:19:27;7.25;;;1.33;;
70838;SDS011;58464;52.298;4.852;2023-06-26T11:22:01;9.88;;;1.92;;
70838;SDS011;58464;52.298;4.852;2023-06-26T11:24:27;7.13;;;1.60;;
70838;SDS011;58464;52.298;4.852;2023-06-26T11:26:53;2.35;;;1.10;;
70838;SDS011;58464;52.298;4.852;2023-06-26T11:29:18;5.97;;;1.58;;
70838;SDS011;58464;52.298;4.852;2023-06-26T11:31:43;7.25;;;1.20;;
70838;SDS011;58464;52.298;4.852;2023-06-26T11:34:09;11.75;;;1.88;;
70838;SDS011;58464;52.298;4.852;2023-06-26T11:36:36;4.95;;;1.58;;
70838;SDS011;58464;52.298;4.852;2023-06-26T11:39:02;4.55;;;1.67;;
70838;SDS011;58464;52.298;4.852;2023-06-26T11:41:28;4.05;;;1.38;;
70838;SDS011;58464;52.298;4.852;2023-06-26T11:43:55;6.00;;;1.40;;
70838;SDS011;58464;52.298;4.852;2023-06-26T11:46:22;7.97;;;1.63;;
70838;SDS011;58464;52.298;4.852;2023-06-26T11:48:48;5.50;;;1.75;;
70838;SDS011;58464;52.298;4.852;2023-06-26T11:51:13;6.13;;;1.55;;
70838;SDS011;58464;52.298;4.852;2023-06-26T11:53:42;6.15;;;1.13;;
70838;SDS011;58464;52.298;4.852;2023-06-26T11:56:12;5.38;;;1.25;;
70838;SDS011;58464;52.298;4.852;2023-06-26T12:01:21;6.75;;;1.70;;
70838;SDS011;58464;52.298;4.852;2023-06-26T12:03:48;3.13;;;1.50;;
70838;SDS011;58464;52.298;4.852;2023-06-26T12:06:13;5.47;;;1.13;;
70838;SDS011;58464;52.298;4.852;2023-06-26T12:08:39;3.58;;;1.23;;
70838;SDS011;58464;52.298;4.852;2023-06-26T12:11:04;2.15;;;1.00;;
70838;SDS011;58464;52.298;4.852;2023-06-26T12:13:31;7.15;;;1.20;;
70838;SDS011;58464;52.298;4.852;2023-06-26T12:15:57;6.20;;;1.20;;
70838;SDS011;58464;52.298;4.852;2023-06-26T12:18:22;6.18;;;1.45;;
70838;SDS011;58464;52.298;4.852;2023-06-26T12:20:50;4.22;;;1.60;;
70838;SDS011;58464;52.298;4.852;2023-06-26T12:23:15;5.53;;;1.40;;
70838;SDS011;58464;52.298;4.852;2023-06-26T12:25:40;8.13;;;2.22;;
70838;SDS011;58464;52.298;4.852;2023-06-26T12:28:14;5.43;;;1.50;;
70838;SDS011;58464;52.298;4.852;2023-06-26T12:30:40;5.03;;;1.25;;
70838;SDS011;58464;52.298;4.852;2023-06-26T12:33:12;2.55;;;0.93;;
70838;SDS011;58464;52.298;4.852;2023-06-26T12:35:37;5.55;;;1.02;;
70838;SDS011;58464;52.298;4.852;2023-06-26T12:38:05;2.88;;;1.40;;
70838;SDS011;58464;52.298;4.852;2023-06-26T12:40:30;2.88;;;1.33;;
70838;SDS011;58464;52.298;4.852;2023-06-26T12:42:56;2.47;;;1.03;;
70838;SDS011;58464;52.298;4.852;2023-06-26T12:45:21;4.90;;;1.40;;
70838;SDS011;58464;52.298;4.852;2023-06-26T12:47:46;2.33;;;1.10;;
70838;SDS011;58464;52.298;4.852;2023-06-26T12:50:13;8.45;;;1.60;;
70838;SDS011;58464;52.298;4.852;2023-06-26T12:52:38;2.47;;;0.88;;
70838;SDS011;58464;52.298;4.852;2023-06-26T12:55:04;8.43;;;1.38;;
70838;SDS011;58464;52.298;4.852;2023-06-26T12:57:30;2.75;;;1.05;;
70838;SDS011;58464;52.298;4.852;2023-06-26T12:59:56;3.27;;;1.40;;
70838;SDS011;58464;52.298;4.852;2023-06-26T13:02:23;6.60;;;1.48;;
70838;SDS011;58464;52.298;4.852;2023-06-26T13:04:48;6.07;;;1.30;;
70838;SDS011;58464;52.298;4.852;2023-06-26T13:07:13;5.30;;;1.42;;
70838;SDS011;58464;52.298;4.852;2023-06-26T13:09:38;6.13;;;1.35;;
70838;SDS011;58464;52.298;4.852;2023-06-26T13:12:05;4.20;;;0.90;;
70838;SDS011;58464;52.298;4.852;2023-06-26T13:14:31;2.85;;;1.05;;
70838;SDS011;58464;52.298;4.852;2023-06-26T13:16:57;5.47;;;1.02;;
70838;SDS011;58464;52.298;4.852;2023-06-26T13:19:22;3.40;;;1.30;;
70838;SDS011;58464;52.298;4.852;2023-06-26T13:21:47;3.22;;;0.75;;
70838;SDS011;58464;52.298;4.852;2023-06-26T13:24:13;5.13;;;1.52;;
70838;SDS011;58464;52.298;4.852;2023-06-26T13:26:39;2.47;;;1.02;;
70838;SDS011;58464;52.298;4.852;2023-06-26T13:29:04;2.08;;;1.02;;
70838;SDS011;58464;52.298;4.852;2023-06-26T13:31:30;2.15;;;0.90;;
70838;SDS011;58464;52.298;4.852;2023-06-26T13:33:57;4.05;;;1.25;;
70838;SDS011;58464;52.298;4.852;2023-06-26T13:36:22;4.50;;;1.20;;
70838;SDS011;58464;52.298;4.852;2023-06-26T13:38:48;4.13;;;1.25;;
70838;SDS011;58464;52.298;4.852;2023-06-26T13:41:20;7.35;;;1.50;;
70838;SDS011;58464;52.298;4.852;2023-06-26T13:43:46;5.03;;;1.33;;
70838;SDS011;58464;52.298;4.852;2023-06-26T13:46:11;2.73;;;0.93;;
70838;SDS011;58464;52.298;4.852;2023-06-26T13:48:37;4.82;;;1.17;;
70838;SDS011;58464;52.298;4.852;2023-06-26T13:51:02;2.07;;;1.03;;
70838;SDS011;58464;52.298;4.852;2023-06-26T13:53:27;4.53;;;1.33;;
70838;SDS011;58464;52.298;4.852;2023-06-26T13:55:53;3.17;;;1.03;;
70838;SDS011;58464;52.298;4.852;2023-06-26T13:58:18;2.57;;;0.90;;
70838;SDS011;58464;52.298;4.852;2023-06-26T14:00:44;5.05;;;1.17;;
70838;SDS011;58464;52.298;4.852;2023-06-26T14:03:09;2.97;;;1.20;;
70838;SDS011;58464;52.298;4.852;2023-06-26T14:05:35;5.00;;;1.40;;
70838;SDS011;58464;52.298;4.852;2023-06-26T14:08:04;10.68;;;1.85;;
70838;SDS011;58464;52.298;4.852;2023-06-26T14:10:29;3.40;;;1.23;;
70838;SDS011;58464;52.298;4.852;2023-06-26T14:12:55;2.38;;;1.10;;
70838;SDS011;58464;52.298;4.852;2023-06-26T14:15:20;1.50;;;0.88;;
70838;SDS011;58464;52.298;4.852;2023-06-26T14:17:45;4.35;;;1.23;;
70838;SDS011;58464;52.298;4.852;2023-06-26T14:20:12;4.20;;;1.35;;
70838;SDS011;58464;52.298;4.852;2023-06-26T14:22:38;2.70;;;0.98;;
70838;SDS011;58464;52.298;4.852;2023-06-26T14:25:04;4.43;;;1.52;;
70838;SDS011;58464;52.298;4.852;2023-06-26T14:27:29;1.67;;;0.90;;
70838;SDS011;58464;52.298;4.852;2023-06-26T14:29:54;4.22;;;1.25;;
70838;SDS011;58464;52.298;4.852;2023-06-26T14:32:20;9.57;;;1.37;;
70838;SDS011;58464;52.298;4.852;2023-06-26T14:34:45;2.80;;;1.00;;
70838;SDS011;58464;52.298;4.852;2023-06-26T14:37:10;7.40;;;1.30;;
70838;SDS011;58464;52.298;4.852;2023-06-26T14:39:35;5.03;;;1.30;;
70838;SDS011;58464;52.298;4.852;2023-06-26T14:42:03;3.20;;;1.17;;
70838;SDS011;58464;52.298;4.852;2023-06-26T14:44:28;5.70;;;1.48;;
70838;SDS011;58464;52.298;4.852;2023-06-26T14:46:54;4.68;;;1.30;;
70838;SDS011;58464;52.298;4.852;2023-06-26T14:49:19;3.47;;;1.02;;
70838;SDS011;58464;52.298;4.852;2023-06-26T14:51:44;5.60;;;1.40;;
70838;SDS011;58464;52.298;4.852;2023-06-26T14:54:10;7.03;;;1.00;;
70838;SDS011;58464;52.298;4.852;2023-06-26T14:56:35;5.80;;;1.20;;
70838;SDS011;58464;52.298;4.852;2023-06-26T14:59:00;3.08;;;1.00;;
70838;SDS011;58464;52.298;4.852;2023-06-26T15:01:25;4.17;;;0.90;;
70838;SDS011;58464;52.298;4.852;2023-06-26T15:03:51;4.85;;;1.50;;
70838;SDS011;58464;52.298;4.852;2023-06-26T15:06:16;3.47;;;0.77;;
70838;SDS011;58464;52.298;4.852;2023-06-26T15:08:41;2.78;;;1.40;;
70838;SDS011;58464;52.298;4.852;2023-06-26T15:11:07;1.35;;;0.60;;
70838;SDS011;58464;52.298;4.852;2023-06-26T15:13:32;3.87;;;1.33;;
70838;SDS011;58464;52.298;4.852;2023-06-26T15:15:57;3.60;;;1.83;;